sensor_id;sensor_type;location;lat;lon;timestamp;pressure;altitude;pressure_sealevel;temperature;humidity
75604;BME280;64187;51.010;13.792;2023-01-28T00:01:31;101099.38;;;2.25;80.79
75604;BME280;64187;51.010;13.792;2023-01-28T00:06:29;101095.50;;;2.52;79.70
75604;BME280;64187;51.010;13.792;2023-01-28T00:11:28;101106.56;;;2.96;77.97
75604;BME280;64187;51.010;13.792;2023-01-28T00:16:27;101103.00;;;2.56;79.09
75604;BME280;64187;51.010;13.792;2023-01-28T00:21:26;101098.66;;;2.55;80.31
75604;BME280;64187;51.010;13.792;2023-01-28T00:26:25;101099.38;;;2.97;77.96
75604;BME280;64187;51.010;13.792;2023-01-28T00:31:25;101099.63;;;3.10;77.20
75604;BME280;64187;51.010;13.792;2023-01-28T00:36:25;101095.44;;;3.16;77.05
75604;BME280;64187;51.010;13.792;2023-01-28T00:41:27;101083.25;;;3.13;76.96
75604;BME280;64187;51.010;13.792;2023-01-28T00:46:28;101098.81;;;3.10;76.41
75604;BME280;64187;51.010;13.792;2023-01-28T00:51:27;101101.03;;;2.98;75.89
75604;BME280;64187;51.010;13.792;2023-01-28T00:56:26;101099.00;;;3.00;76.05
75604;BME280;64187;51.010;13.792;2023-01-28T01:01:26;101102.59;;;2.84;77.18
75604;BME280;64187;51.010;13.792;2023-01-28T01:06:25;101094.94;;;2.73;75.88
75604;BME280;64187;51.010;13.792;2023-01-28T01:11:24;101087.53;;;2.83;75.92
75604;BME280;64187;51.010;13.792;2023-01-28T01:16:28;101102.50;;;3.00;75.24
75604;BME280;64187;51.010;13.792;2023-01-28T01:21:28;101112.38;;;3.00;73.69
75604;BME280;64187;51.010;13.792;2023-01-28T01:26:28;101104.63;;;2.74;74.23
75604;BME280;64187;51.010;13.792;2023-01-28T01:31:28;101113.00;;;2.63;75.46
75604;BME280;64187;51.010;13.792;2023-01-28T01:36:27;101118.84;;;2.66;74.34
75604;BME280;64187;51.010;13.792;2023-01-28T01:41:28;101119.63;;;2.83;73.42
75604;BME280;64187;51.010;13.792;2023-01-28T01:51:37;101118.69;;;2.59;74.93
75604;BME280;64187;51.010;13.792;2023-01-28T01:56:39;101119.19;;;2.71;74.91
75604;BME280;64187;51.010;13.792;2023-01-28T02:01:40;101122.16;;;2.76;75.17
75604;BME280;64187;51.010;13.792;2023-01-28T02:06:40;101115.31;;;2.74;74.28
75604;BME280;64187;51.010;13.792;2023-01-28T02:11:39;101112.41;;;2.92;74.06
75604;BME280;64187;51.010;13.792;2023-01-28T02:16:38;101114.97;;;2.77;74.11
75604;BME280;64187;51.010;13.792;2023-01-28T02:27:20;101111.22;;;2.30;75.26
75604;BME280;64187;51.010;13.792;2023-01-28T02:32:28;101116.75;;;3.01;72.45
75604;BME280;64187;51.010;13.792;2023-01-28T02:42:50;101123.47;;;2.89;71.67
75604;BME280;64187;51.010;13.792;2023-01-28T02:47:52;101125.09;;;2.98;70.63
75604;BME280;64187;51.010;13.792;2023-01-28T02:53:32;101130.53;;;2.73;71.56
75604;BME280;64187;51.010;13.792;2023-01-28T03:03:57;101128.03;;;2.72;71.75
75604;BME280;64187;51.010;13.792;2023-01-28T03:08:58;101139.78;;;3.02;71.18
75604;BME280;64187;51.010;13.792;2023-01-28T03:14:18;101131.97;;;2.92;71.93
75604;BME280;64187;51.010;13.792;2023-01-28T03:19:36;101138.00;;;2.78;73.01
75604;BME280;64187;51.010;13.792;2023-01-28T03:24:54;101136.84;;;2.89;73.20
75604;BME280;64187;51.010;13.792;2023-01-28T03:30:24;101144.81;;;2.97;72.61
75604;BME280;64187;51.010;13.792;2023-01-28T03:35:52;101145.66;;;3.06;72.37
75604;BME280;64187;51.010;13.792;2023-01-28T03:41:10;101152.84;;;2.97;72.19
75604;BME280;64187;51.010;13.792;2023-01-28T03:46:10;101156.09;;;2.59;73.10
75604;BME280;64187;51.010;13.792;2023-01-28T03:51:10;101153.41;;;2.84;73.04
75604;BME280;64187;51.010;13.792;2023-01-28T03:56:09;101154.72;;;2.88;72.62
75604;BME280;64187;51.010;13.792;2023-01-28T04:01:18;101155.59;;;2.72;73.11
75604;BME280;64187;51.010;13.792;2023-01-28T04:06:17;101153.88;;;2.88;72.05
75604;BME280;64187;51.010;13.792;2023-01-28T04:11:27;101166.91;;;2.83;72.01
75604;BME280;64187;51.010;13.792;2023-01-28T04:16:28;101163.63;;;2.64;72.03
75604;BME280;64187;51.010;13.792;2023-01-28T04:21:27;101158.94;;;2.58;72.72
75604;BME280;64187;51.010;13.792;2023-01-28T04:26:27;101168.47;;;2.61;72.29
75604;BME280;64187;51.010;13.792;2023-01-28T04:31:26;101163.97;;;2.53;72.29
75604;BME280;64187;51.010;13.792;2023-01-28T04:36:43;101174.00;;;2.34;72.82
75604;BME280;64187;51.010;13.792;2023-01-28T04:41:59;101183.50;;;2.45;72.16
75604;BME280;64187;51.010;13.792;2023-01-28T04:47:15;101188.38;;;2.42;71.35
75604;BME280;64187;51.010;13.792;2023-01-28T04:52:21;101193.03;;;2.40;70.50
75604;BME280;64187;51.010;13.792;2023-01-28T04:57:26;101201.22;;;2.38;70.73
75604;BME280;64187;51.010;13.792;2023-01-28T05:02:26;101198.53;;;2.13;68.76
75604;BME280;64187;51.010;13.792;2023-01-28T05:07:24;101208.06;;;2.24;68.66
75604;BME280;64187;51.010;13.792;2023-01-28T05:12:23;101212.56;;;2.32;67.23
75604;BME280;64187;51.010;13.792;2023-01-28T05:17:25;101206.78;;;10.62;71.99
75604;BME280;64187;51.010;13.792;2023-01-28T05:22:24;101215.06;;;8.67;56.04
75604;BME280;64187;51.010;13.792;2023-01-28T05:27:48;101213.72;;;10.83;50.60
75604;BME280;64187;51.010;13.792;2023-01-28T05:32:48;101231.22;;;9.07;44.93
75604;BME280;64187;51.010;13.792;2023-01-28T05:37:52;101243.63;;;5.15;54.26
75604;BME280;64187;51.010;13.792;2023-01-28T05:42:51;101247.19;;;3.38;58.74
75604;BME280;64187;51.010;13.792;2023-01-28T05:48:10;101254.81;;;2.53;61.90
75604;BME280;64187;51.010;13.792;2023-01-28T05:53:30;101256.50;;;2.29;63.33
75604;BME280;64187;51.010;13.792;2023-01-28T05:58:29;101268.56;;;1.83;65.18
75604;BME280;64187;51.010;13.792;2023-01-28T06:03:32;101270.09;;;1.51;66.10
75604;BME280;64187;51.010;13.792;2023-01-28T06:08:32;101273.78;;;1.58;66.26
75604;BME280;64187;51.010;13.792;2023-01-28T06:13:31;101286.66;;;1.63;65.14
75604;BME280;64187;51.010;13.792;2023-01-28T06:18:48;101289.66;;;1.60;65.45
75604;BME280;64187;51.010;13.792;2023-01-28T06:23:47;101304.38;;;1.38;65.35
75604;BME280;64187;51.010;13.792;2023-01-28T06:28:46;101312.69;;;1.08;66.65
75604;BME280;64187;51.010;13.792;2023-01-28T06:33:45;101318.81;;;1.27;65.26
75604;BME280;64187;51.010;13.792;2023-01-28T06:38:44;101320.31;;;1.03;65.53
75604;BME280;64187;51.010;13.792;2023-01-28T06:43:44;101332.16;;;1.09;66.12
75604;BME280;64187;51.010;13.792;2023-01-28T06:48:43;101333.88;;;1.10;65.88
75604;BME280;64187;51.010;13.792;2023-01-28T06:53:42;101342.19;;;0.71;66.88
75604;BME280;64187;51.010;13.792;2023-01-28T06:58:43;101343.78;;;1.00;64.42
75604;BME280;64187;51.010;13.792;2023-01-28T07:03:43;101344.19;;;0.87;64.76
75604;BME280;64187;51.010;13.792;2023-01-28T07:08:44;101362.31;;;0.66;65.08
75604;BME280;64187;51.010;13.792;2023-01-28T07:13:43;101364.59;;;0.78;65.36
75604;BME280;64187;51.010;13.792;2023-01-28T07:18:42;101355.75;;;0.78;63.42
75604;BME280;64187;51.010;13.792;2023-01-28T07:23:42;101364.72;;;0.77;62.47
75604;BME280;64187;51.010;13.792;2023-01-28T07:28:41;101368.38;;;0.40;64.95
75604;BME280;64187;51.010;13.792;2023-01-28T07:33:39;101374.34;;;0.88;62.14
75604;BME280;64187;51.010;13.792;2023-01-28T07:38:38;101376.84;;;0.53;64.33
75604;BME280;64187;51.010;13.792;2023-01-28T07:43:37;101379.25;;;0.64;63.83
75604;BME280;64187;51.010;13.792;2023-01-28T07:48:47;101373.59;;;0.77;63.45
75604;BME280;64187;51.010;13.792;2023-01-28T07:53:48;101370.81;;;0.69;61.37
75604;BME280;64187;51.010;13.792;2023-01-28T07:58:51;101387.03;;;0.58;62.58
75604;BME280;64187;51.010;13.792;2023-01-28T08:03:50;101381.50;;;0.24;60.16
75604;BME280;64187;51.010;13.792;2023-01-28T08:08:48;101381.94;;;0.19;60.16
75604;BME280;64187;51.010;13.792;2023-01-28T08:13:47;101388.81;;;0.39;59.99
75604;BME280;64187;51.010;13.792;2023-01-28T08:18:46;101388.69;;;0.59;59.25
75604;BME280;64187;51.010;13.792;2023-01-28T08:23:45;101386.97;;;0.68;59.37
75604;BME280;64187;51.010;13.792;2023-01-28T08:28:44;101391.44;;;0.67;58.88
75604;BME280;64187;51.010;13.792;2023-01-28T08:33:43;101390.34;;;0.70;58.44
75604;BME280;64187;51.010;13.792;2023-01-28T08:38:41;101382.84;;;0.55;58.12
75604;BME280;64187;51.010;13.792;2023-01-28T08:43:41;101399.19;;;0.42;59.42
75604;BME280;64187;51.010;13.792;2023-01-28T08:48:39;101401.63;;;0.36;59.08
75604;BME280;64187;51.010;13.792;2023-01-28T08:53:38;101407.59;;;0.48;59.44
75604;BME280;64187;51.010;13.792;2023-01-28T08:58:37;101411.03;;;0.76;59.72
75604;BME280;64187;51.010;13.792;2023-01-28T09:03:36;101415.66;;;0.74;59.87
75604;BME280;64187;51.010;13.792;2023-01-28T09:08:35;101417.13;;;0.86;57.98
75604;BME280;64187;51.010;13.792;2023-01-28T09:13:33;101419.47;;;0.89;59.39
75604;BME280;64187;51.010;13.792;2023-01-28T09:18:32;101421.38;;;0.79;60.13
75604;BME280;64187;51.010;13.792;2023-01-28T09:23:33;101416.34;;;1.12;57.83
75604;BME280;64187;51.010;13.792;2023-01-28T09:28:33;101424.84;;;1.07;58.64
75604;BME280;64187;51.010;13.792;2023-01-28T09:33:32;101439.66;;;0.74;59.90
75604;BME280;64187;51.010;13.792;2023-01-28T09:38:32;101429.47;;;0.87;59.48
75604;BME280;64187;51.010;13.792;2023-01-28T09:48:44;101422.94;;;0.54;62.16
75604;BME280;64187;51.010;13.792;2023-01-28T09:53:47;101427.56;;;0.97;59.33
75604;BME280;64187;51.010;13.792;2023-01-28T09:58:49;101428.16;;;1.27;57.62
75604;BME280;64187;51.010;13.792;2023-01-28T10:04:04;101433.97;;;1.04;58.63
75604;BME280;64187;51.010;13.792;2023-01-28T10:19:27;101439.91;;;0.35;59.45
75604;BME280;64187;51.010;13.792;2023-01-28T10:24:32;101430.13;;;0.26;59.71
75604;BME280;64187;51.010;13.792;2023-01-28T10:29:33;101432.66;;;1.08;58.46
75604;BME280;64187;51.010;13.792;2023-01-28T10:34:37;101441.50;;;1.27;58.63
75604;BME280;64187;51.010;13.792;2023-01-28T10:39:36;101442.16;;;1.29;56.95
75604;BME280;64187;51.010;13.792;2023-01-28T10:44:41;101446.22;;;1.33;56.62
75604;BME280;64187;51.010;13.792;2023-01-28T10:49:47;101455.97;;;1.42;56.50
75604;BME280;64187;51.010;13.792;2023-01-28T10:55:01;101464.28;;;1.21;56.32
75604;BME280;64187;51.010;13.792;2023-01-28T11:00:22;101473.00;;;1.67;53.75
75604;BME280;64187;51.010;13.792;2023-01-28T11:05:29;101468.09;;;1.37;55.13
75604;BME280;64187;51.010;13.792;2023-01-28T11:10:29;101457.84;;;1.50;54.65
75604;BME280;64187;51.010;13.792;2023-01-28T11:15:30;101458.38;;;1.54;53.71
75604;BME280;64187;51.010;13.792;2023-01-28T11:20:36;101457.69;;;1.51;55.67
75604;BME280;64187;51.010;13.792;2023-01-28T11:25:36;101461.22;;;1.52;55.05
75604;BME280;64187;51.010;13.792;2023-01-28T11:30:37;101452.22;;;1.53;54.51
75604;BME280;64187;51.010;13.792;2023-01-28T11:35:38;101450.53;;;1.34;55.15
75604;BME280;64187;51.010;13.792;2023-01-28T11:40:37;101446.59;;;1.20;54.64
75604;BME280;64187;51.010;13.792;2023-01-28T11:45:45;101440.19;;;1.31;54.63
75604;BME280;64187;51.010;13.792;2023-01-28T12:06:48;101429.50;;;1.49;54.10
75604;BME280;64187;51.010;13.792;2023-01-28T12:17:35;101429.97;;;1.26;55.47
75604;BME280;64187;51.010;13.792;2023-01-28T12:27:59;101415.53;;;1.11;56.47
75604;BME280;64187;51.010;13.792;2023-01-28T12:38:39;101419.53;;;1.33;55.51
75604;BME280;64187;51.010;13.792;2023-01-28T12:49:16;101412.91;;;1.37;55.26
75604;BME280;64187;51.010;13.792;2023-01-28T12:54:28;101409.00;;;1.49;54.55
75604;BME280;64187;51.010;13.792;2023-01-28T12:59:33;101415.31;;;1.48;56.11
75604;BME280;64187;51.010;13.792;2023-01-28T13:04:38;101418.06;;;1.57;55.67
75604;BME280;64187;51.010;13.792;2023-01-28T13:15:11;101409.63;;;1.69;54.46
75604;BME280;64187;51.010;13.792;2023-01-28T13:20:15;101404.59;;;1.66;53.25
75604;BME280;64187;51.010;13.792;2023-01-28T13:25:24;101410.66;;;1.50;55.15
75604;BME280;64187;51.010;13.792;2023-01-28T13:30:28;101407.31;;;1.48;56.17
75604;BME280;64187;51.010;13.792;2023-01-28T13:40:28;101416.41;;;1.64;54.89
75604;BME280;64187;51.010;13.792;2023-01-28T13:45:28;101423.66;;;1.71;53.35
75604;BME280;64187;51.010;13.792;2023-01-28T13:50:39;101419.09;;;1.64;53.29
75604;BME280;64187;51.010;13.792;2023-01-28T13:55:39;101419.25;;;1.62;53.78
75604;BME280;64187;51.010;13.792;2023-01-28T14:01:38;101431.78;;;1.62;54.18
75604;BME280;64187;51.010;13.792;2023-01-28T14:17:47;101451.88;;;1.30;54.99
75604;BME280;64187;51.010;13.792;2023-01-28T14:22:47;101452.09;;;1.37;55.48
75604;BME280;64187;51.010;13.792;2023-01-28T14:27:51;101443.50;;;1.07;56.08
75604;BME280;64187;51.010;13.792;2023-01-28T14:32:52;101455.44;;;1.03;55.71
75604;BME280;64187;51.010;13.792;2023-01-28T14:37:52;101449.56;;;1.35;55.22
75604;BME280;64187;51.010;13.792;2023-01-28T14:42:54;101444.47;;;1.42;55.36
75604;BME280;64187;51.010;13.792;2023-01-28T14:59:41;101439.63;;;0.56;57.16
75604;BME280;64187;51.010;13.792;2023-01-28T15:04:41;101452.78;;;0.85;55.99
75604;BME280;64187;51.010;13.792;2023-01-28T15:09:40;101455.66;;;0.92;56.17
75604;BME280;64187;51.010;13.792;2023-01-28T15:14:39;101446.50;;;0.94;56.33
75604;BME280;64187;51.010;13.792;2023-01-28T15:19:39;101449.03;;;1.14;54.98
75604;BME280;64187;51.010;13.792;2023-01-28T15:24:40;101444.03;;;0.93;55.79
75604;BME280;64187;51.010;13.792;2023-01-28T15:29:50;101449.88;;;0.96;55.41
75604;BME280;64187;51.010;13.792;2023-01-28T15:34:49;101426.25;;;1.01;54.43
75604;BME280;64187;51.010;13.792;2023-01-28T15:39:59;101439.63;;;0.56;55.96
75604;BME280;64187;51.010;13.792;2023-01-28T15:44:58;101432.34;;;1.12;53.75
75604;BME280;64187;51.010;13.792;2023-01-28T15:50:00;101427.72;;;0.96;57.29
75604;BME280;64187;51.010;13.792;2023-01-28T15:55:01;101422.34;;;1.32;53.32
75604;BME280;64187;51.010;13.792;2023-01-28T16:05:30;101421.09;;;1.18;54.07
75604;BME280;64187;51.010;13.792;2023-01-28T16:10:30;101418.72;;;1.33;52.96
75604;BME280;64187;51.010;13.792;2023-01-28T16:15:30;101411.28;;;1.00;55.23
75604;BME280;64187;51.010;13.792;2023-01-28T16:20:30;101410.75;;;1.15;53.58
75604;BME280;64187;51.010;13.792;2023-01-28T16:25:32;101402.97;;;1.03;54.31
75604;BME280;64187;51.010;13.792;2023-01-28T16:30:31;101419.19;;;1.10;53.79
75604;BME280;64187;51.010;13.792;2023-01-28T16:35:30;101417.00;;;1.32;52.88
75604;BME280;64187;51.010;13.792;2023-01-28T16:40:49;101428.25;;;1.17;53.66
75604;BME280;64187;51.010;13.792;2023-01-28T16:45:48;101432.16;;;0.87;56.18
75604;BME280;64187;51.010;13.792;2023-01-28T16:50:47;101444.53;;;1.14;54.16
75604;BME280;64187;51.010;13.792;2023-01-28T16:55:48;101443.78;;;0.86;54.47
75604;BME280;64187;51.010;13.792;2023-01-28T17:00:47;101429.41;;;1.15;53.74
75604;BME280;64187;51.010;13.792;2023-01-28T17:05:46;101430.00;;;0.91;55.25
75604;BME280;64187;51.010;13.792;2023-01-28T17:10:50;101434.06;;;0.67;54.62
75604;BME280;64187;51.010;13.792;2023-01-28T17:15:49;101441.81;;;1.06;54.54
75604;BME280;64187;51.010;13.792;2023-01-28T17:20:48;101450.94;;;1.39;54.04
75604;BME280;64187;51.010;13.792;2023-01-28T17:25:47;101457.13;;;1.40;54.27
75604;BME280;64187;51.010;13.792;2023-01-28T17:30:46;101464.50;;;1.28;52.97
75604;BME280;64187;51.010;13.792;2023-01-28T17:35:45;101470.13;;;1.43;52.59
75604;BME280;64187;51.010;13.792;2023-01-28T17:40:45;101479.81;;;1.44;53.51
75604;BME280;64187;51.010;13.792;2023-01-28T17:45:45;101490.72;;;1.50;52.01
75604;BME280;64187;51.010;13.792;2023-01-28T17:50:44;101501.31;;;1.60;53.33
75604;BME280;64187;51.010;13.792;2023-01-28T17:55:43;101508.13;;;0.91;55.09
75604;BME280;64187;51.010;13.792;2023-01-28T18:00:42;101503.69;;;0.54;55.71
75604;BME280;64187;51.010;13.792;2023-01-28T18:05:41;101511.69;;;0.54;55.70
75604;BME280;64187;51.010;13.792;2023-01-28T18:10:42;101503.94;;;-0.14;57.88
75604;BME280;64187;51.010;13.792;2023-01-28T18:15:41;101513.13;;;0.11;57.41
75604;BME280;64187;51.010;13.792;2023-01-28T18:20:39;101498.56;;;0.15;57.67
75604;BME280;64187;51.010;13.792;2023-01-28T18:25:38;101491.28;;;0.45;55.90
75604;BME280;64187;51.010;13.792;2023-01-28T18:30:38;101489.78;;;0.33;55.70
75604;BME280;64187;51.010;13.792;2023-01-28T18:35:41;101508.59;;;0.59;55.50
75604;BME280;64187;51.010;13.792;2023-01-28T18:40:44;101502.66;;;0.93;56.02
75604;BME280;64187;51.010;13.792;2023-01-28T18:45:43;101514.53;;;0.80;57.29
75604;BME280;64187;51.010;13.792;2023-01-28T18:50:50;101523.84;;;0.67;56.38
75604;BME280;64187;51.010;13.792;2023-01-28T18:55:49;101528.66;;;0.26;57.64
75604;BME280;64187;51.010;13.792;2023-01-28T19:00:48;101534.31;;;0.50;58.46
75604;BME280;64187;51.010;13.792;2023-01-28T19:05:47;101545.28;;;0.75;57.13
75604;BME280;64187;51.010;13.792;2023-01-28T19:10:53;101569.25;;;0.75;57.55
75604;BME280;64187;51.010;13.792;2023-01-28T19:15:53;101578.97;;;0.94;57.53
75604;BME280;64187;51.010;13.792;2023-01-28T19:20:51;101589.09;;;0.62;58.97
75604;BME280;64187;51.010;13.792;2023-01-28T19:25:50;101587.19;;;1.28;80.22
75604;BME280;64187;51.010;13.792;2023-01-28T19:30:49;101571.31;;;3.19;54.55
75604;BME280;64187;51.010;13.792;2023-01-28T19:35:56;101573.75;;;1.02;57.24
75604;BME280;64187;51.010;13.792;2023-01-28T19:41:01;101560.44;;;1.02;59.00
75604;BME280;64187;51.010;13.792;2023-01-28T19:46:03;101557.41;;;0.87;59.73
75604;BME280;64187;51.010;13.792;2023-01-28T19:51:06;101548.03;;;0.83;60.85
75604;BME280;64187;51.010;13.792;2023-01-28T19:56:08;101548.91;;;0.74;61.13
75604;BME280;64187;51.010;13.792;2023-01-28T20:01:10;101554.97;;;0.29;63.08
75604;BME280;64187;51.010;13.792;2023-01-28T20:06:13;101551.25;;;0.49;61.82
75604;BME280;64187;51.010;13.792;2023-01-28T20:11:14;101549.88;;;0.45;62.67
75604;BME280;64187;51.010;13.792;2023-01-28T20:16:15;101535.78;;;0.90;62.44
75604;BME280;64187;51.010;13.792;2023-01-28T20:21:17;101537.97;;;1.04;62.29
75604;BME280;64187;51.010;13.792;2023-01-28T20:26:17;101532.88;;;0.56;63.43
75604;BME280;64187;51.010;13.792;2023-01-28T20:31:18;101521.78;;;0.88;62.64
75604;BME280;64187;51.010;13.792;2023-01-28T20:36:18;101508.84;;;1.29;61.78
75604;BME280;64187;51.010;13.792;2023-01-28T20:41:19;101507.63;;;1.41;61.18
75604;BME280;64187;51.010;13.792;2023-01-28T20:46:20;101511.56;;;1.01;61.63
75604;BME280;64187;51.010;13.792;2023-01-28T20:51:22;101502.22;;;0.42;63.16
75604;BME280;64187;51.010;13.792;2023-01-28T20:56:22;101523.44;;;0.61;63.55
75604;BME280;64187;51.010;13.792;2023-01-28T21:01:23;101518.63;;;1.20;60.84
75604;BME280;64187;51.010;13.792;2023-01-28T21:06:23;101526.84;;;1.27;61.54
75604;BME280;64187;51.010;13.792;2023-01-28T21:11:24;101528.31;;;1.39;61.51
75604;BME280;64187;51.010;13.792;2023-01-28T21:16:23;101534.28;;;1.05;61.57
75604;BME280;64187;51.010;13.792;2023-01-28T21:21:25;101547.72;;;0.86;61.68
75604;BME280;64187;51.010;13.792;2023-01-28T21:26:24;101551.06;;;1.16;61.85
75604;BME280;64187;51.010;13.792;2023-01-28T21:31:24;101561.53;;;1.45;61.20
75604;BME280;64187;51.010;13.792;2023-01-28T21:36:24;101562.19;;;1.29;61.72
75604;BME280;64187;51.010;13.792;2023-01-28T21:41:24;101555.78;;;0.76;63.88
75604;BME280;64187;51.010;13.792;2023-01-28T21:46:28;101562.44;;;1.18;62.27
75604;BME280;64187;51.010;13.792;2023-01-28T21:51:28;101565.03;;;1.27;62.43
75604;BME280;64187;51.010;13.792;2023-01-28T21:56:33;101560.91;;;1.51;61.12
75604;BME280;64187;51.010;13.792;2023-01-28T22:01:32;101541.34;;;1.42;61.06
75604;BME280;64187;51.010;13.792;2023-01-28T22:06:31;101557.72;;;1.29;60.82
75604;BME280;64187;51.010;13.792;2023-01-28T22:11:30;101556.81;;;1.57;60.43
75604;BME280;64187;51.010;13.792;2023-01-28T22:16:28;101548.72;;;1.31;59.68
75604;BME280;64187;51.010;13.792;2023-01-28T22:21:28;101541.25;;;1.34;60.12
75604;BME280;64187;51.010;13.792;2023-01-28T22:26:26;101531.94;;;1.20;59.34
75604;BME280;64187;51.010;13.792;2023-01-28T22:31:25;101534.38;;;1.32;59.51
75604;BME280;64187;51.010;13.792;2023-01-28T22:36:25;101518.16;;;1.25;59.66
75604;BME280;64187;51.010;13.792;2023-01-28T22:41:24;101520.13;;;1.05;60.04
75604;BME280;64187;51.010;13.792;2023-01-28T22:46:23;101518.22;;;1.15;59.73
75604;BME280;64187;51.010;13.792;2023-01-28T22:51:25;101511.81;;;1.44;59.81
75604;BME280;64187;51.010;13.792;2023-01-28T22:56:26;101516.47;;;1.24;60.20
75604;BME280;64187;51.010;13.792;2023-01-28T23:01:25;101503.97;;;1.06;60.93
75604;BME280;64187;51.010;13.792;2023-01-28T23:06:26;101515.25;;;1.36;59.69
75604;BME280;64187;51.010;13.792;2023-01-28T23:11:25;101513.50;;;1.45;59.48
75604;BME280;64187;51.010;13.792;2023-01-28T23:16:27;101515.53;;;1.69;58.93
75604;BME280;64187;51.010;13.792;2023-01-28T23:21:44;101528.91;;;1.51;59.12
75604;BME280;64187;51.010;13.792;2023-01-28T23:27:02;101525.53;;;1.31;60.18
75604;BME280;64187;51.010;13.792;2023-01-28T23:32:06;101515.28;;;1.54;59.69
75604;BME280;64187;51.010;13.792;2023-01-28T23:37:09;101509.47;;;1.23;60.70
75604;BME280;64187;51.010;13.792;2023-01-28T23:42:18;101512.69;;;1.44;59.07
75604;BME280;64187;51.010;13.792;2023-01-28T23:47:21;101510.16;;;1.25;59.68
75604;BME280;64187;51.010;13.792;2023-01-28T23:52:20;101522.22;;;1.47;60.35
75604;BME280;64187;51.010;13.792;2023-01-28T23:57:18;101518.22;;;1.15;60.09
